Time;durP1;ratioP1;P1;durP2;ratioP2;P2;SDS_P1;SDS_P2;PMS_P1;PMS_P2;Temp;Humidity;BMP_temperature;BMP_pressure;BME280_temperature;BME280_humidity;BME280_pressure;Samples;Min_cycle;Max_cycle;Signal;HPM_P1;HPM_P2
2023/06/29 00:01:32;;;;;;;14.50;11.40;;;;;;;;;;5118582;28;20446;-65
2023/06/29 00:03:59;;;;;;;16.23;11.33;;;;;;;;;;5117883;28;20476;-65
2023/06/29 00:06:26;;;;;;;16.73;10.60;;;;;;;;;;5117686;28;20730;-65
2023/06/29 00:08:52;;;;;;;14.83;11.00;;;;;;;;;;5123689;28;20446;-65
2023/06/29 00:11:20;;;;;;;14.43;10.77;;;;;;;;;;5116192;28;20513;-65
2023/06/29 00:13:48;;;;;;;19.33;11.50;;;;;;;;;;5121951;28;20501;-65
2023/06/29 00:16:14;;;;;;;16.23;10.23;;;;;;;;;;5119563;28;20450;-64
2023/06/29 00:18:40;;;;;;;13.57;9.20;;;;;;;;;;5118125;28;20834;-65
2023/06/29 00:21:09;;;;;;;16.07;9.00;;;;;;;;;;5116316;28;20465;-65
2023/06/29 00:23:36;;;;;;;11.20;9.67;;;;;;;;;;5111361;28;20537;-64
2023/06/29 00:26:03;;;;;;;14.27;9.20;;;;;;;;;;5119837;28;20589;-64
2023/06/29 00:28:30;;;;;;;16.03;10.70;;;;;;;;;;5118031;28;20485;-65
2023/06/29 00:30:57;;;;;;;11.83;9.07;;;;;;;;;;5123651;27;20914;-65
2023/06/29 00:33:24;;;;;;;13.90;8.97;;;;;;;;;;5118881;27;20449;-65
2023/06/29 00:35:50;;;;;;;10.77;9.23;;;;;;;;;;5127412;27;20457;-65
2023/06/29 00:38:17;;;;;;;19.43;10.30;;;;;;;;;;5124072;27;20457;-64
2023/06/29 00:40:43;;;;;;;16.03;10.40;;;;;;;;;;5114861;28;20571;-64
2023/06/29 00:43:09;;;;;;;12.60;10.27;;;;;;;;;;5117723;27;20529;-64
2023/06/29 00:45:36;;;;;;;12.37;9.47;;;;;;;;;;5125045;27;20835;-64
2023/06/29 00:48:04;;;;;;;11.30;9.37;;;;;;;;;;5122841;28;20461;-64
2023/06/29 00:50:33;;;;;;;16.30;9.77;;;;;;;;;;5110845;27;20517;-64
2023/06/29 00:53:00;;;;;;;15.23;9.33;;;;;;;;;;5114230;27;20484;-64
2023/06/29 00:55:27;;;;;;;13.17;8.77;;;;;;;;;;5118962;28;20434;-64
2023/06/29 00:57:54;;;;;;;10.13;8.40;;;;;;;;;;5116771;27;20515;-64
2023/06/29 01:00:21;;;;;;;11.77;8.73;;;;;;;;;;5114984;27;20447;-65
2023/06/29 01:02:48;;;;;;;10.40;8.60;;;;;;;;;;5122745;28;20587;-65
2023/06/29 01:05:17;;;;;;;12.93;8.93;;;;;;;;;;5123203;27;20568;-65
2023/06/29 01:07:46;;;;;;;13.33;9.13;;;;;;;;;;5122101;27;20997;-66
2023/06/29 01:10:13;;;;;;;12.90;9.17;;;;;;;;;;5121296;28;20450;-65
2023/06/29 01:12:40;;;;;;;13.80;9.90;;;;;;;;;;5114815;28;20536;-66
2023/06/29 01:15:10;;;;;;;13.80;9.07;;;;;;;;;;5123039;28;20885;-65
2023/06/29 01:17:38;;;;;;;12.57;9.47;;;;;;;;;;5122435;28;20546;-64
2023/06/29 01:20:05;;;;;;;12.90;8.50;;;;;;;;;;5117441;28;20473;-65
2023/06/29 01:22:35;;;;;;;14.53;8.40;;;;;;;;;;5119714;27;20511;-65
2023/06/29 01:25:03;;;;;;;12.90;8.63;;;;;;;;;;5122786;27;20514;-65
2023/06/29 01:27:30;;;;;;;10.47;8.80;;;;;;;;;;5122741;27;20522;-64
2023/06/29 01:30:00;;;;;;;14.00;8.53;;;;;;;;;;5123367;28;20458;-65
2023/06/29 01:32:33;;;;;;;12.33;9.03;;;;;;;;;;5123971;27;20472;-65
2023/06/29 01:35:00;;;;;;;14.60;8.93;;;;;;;;;;5121488;28;20501;-65
2023/06/29 01:37:28;;;;;;;12.50;9.63;;;;;;;;;;5119534;27;20481;-64
2023/06/29 01:39:56;;;;;;;17.23;9.67;;;;;;;;;;5125622;27;21041;-64
2023/06/29 01:42:25;;;;;;;12.23;9.20;;;;;;;;;;5107747;28;20994;-64
2023/06/29 01:44:53;;;;;;;13.07;9.57;;;;;;;;;;5124425;27;20585;-64
2023/06/29 01:47:21;;;;;;;13.03;8.93;;;;;;;;;;5114785;27;20483;-64
2023/06/29 01:49:48;;;;;;;12.03;9.73;;;;;;;;;;5121044;27;20932;-65
2023/06/29 01:52:15;;;;;;;11.60;8.87;;;;;;;;;;5119527;28;20961;-64
2023/06/29 01:54:41;;;;;;;11.50;9.90;;;;;;;;;;5119915;28;20529;-65
2023/06/29 01:57:08;;;;;;;12.93;8.60;;;;;;;;;;5114286;27;20489;-64
2023/06/29 01:59:36;;;;;;;12.70;9.73;;;;;;;;;;5110536;28;20481;-64
2023/06/29 02:02:03;;;;;;;19.43;10.23;;;;;;;;;;5121962;27;20462;-64
2023/06/29 02:04:30;;;;;;;11.43;9.70;;;;;;;;;;5121664;27;20450;-65
2023/06/29 02:06:56;;;;;;;13.97;9.87;;;;;;;;;;5122284;28;20541;-64
2023/06/29 02:09:22;;;;;;;16.03;11.37;;;;;;;;;;5120243;28;20955;-64
2023/06/29 02:11:49;;;;;;;16.60;10.93;;;;;;;;;;5121469;27;20520;-65
2023/06/29 02:14:16;;;;;;;14.83;10.80;;;;;;;;;;5120185;28;20970;-64
2023/06/29 02:16:44;;;;;;;15.83;10.97;;;;;;;;;;5121007;28;20462;-64
2023/06/29 02:19:11;;;;;;;19.37;10.80;;;;;;;;;;5119776;27;20478;-64
2023/06/29 02:21:37;;;;;;;14.00;10.93;;;;;;;;;;5118794;27;20608;-64
2023/06/29 02:24:04;;;;;;;13.60;10.80;;;;;;;;;;5113149;28;20506;-64
2023/06/29 02:26:30;;;;;;;14.43;11.63;;;;;;;;;;5120590;27;20525;-64
2023/06/29 02:28:58;;;;;;;14.83;10.47;;;;;;;;;;5124965;27;20488;-64
2023/06/29 02:31:25;;;;;;;17.27;11.20;;;;;;;;;;5120370;28;20446;-64
2023/06/29 02:33:52;;;;;;;13.43;11.80;;;;;;;;;;5110822;27;20561;-64
2023/06/29 02:36:21;;;;;;;15.03;10.63;;;;;;;;;;5120651;27;20513;-64
2023/06/29 02:38:47;;;;;;;14.47;11.00;;;;;;;;;;5125429;27;20479;-64
2023/06/29 02:41:16;;;;;;;16.17;11.57;;;;;;;;;;5121184;27;20473;-65
2023/06/29 02:43:43;;;;;;;17.13;10.87;;;;;;;;;;5116442;28;20972;-65
2023/06/29 02:46:10;;;;;;;15.30;10.40;;;;;;;;;;5117848;27;20513;-64
2023/06/29 02:48:36;;;;;;;14.03;11.93;;;;;;;;;;5119980;28;20501;-65
2023/06/29 02:51:07;;;;;;;16.77;11.17;;;;;;;;;;5123294;27;20492;-65
2023/06/29 02:53:33;;;;;;;13.63;10.80;;;;;;;;;;5121401;27;20477;-64
2023/06/29 02:55:59;;;;;;;13.20;9.87;;;;;;;;;;5119726;27;20450;-64
2023/06/29 02:58:26;;;;;;;16.70;10.67;;;;;;;;;;5120719;28;20461;-64
2023/06/29 03:00:52;;;;;;;15.40;11.17;;;;;;;;;;5120687;28;20525;-65
2023/06/29 03:03:19;;;;;;;14.50;10.00;;;;;;;;;;5119766;27;20446;-64
2023/06/29 03:05:45;;;;;;;14.67;10.70;;;;;;;;;;5115206;27;20489;-65
2023/06/29 03:08:13;;;;;;;20.37;12.87;;;;;;;;;;5116742;28;21066;-65
2023/06/29 03:10:39;;;;;;;16.03;12.40;;;;;;;;;;5111175;28;20485;-64
2023/06/29 03:13:09;;;;;;;15.70;10.33;;;;;;;;;;5114736;27;20493;-64
2023/06/29 03:15:35;;;;;;;13.77;10.50;;;;;;;;;;5121170;27;20445;-65
2023/06/29 03:18:04;;;;;;;11.97;10.10;;;;;;;;;;5120287;27;20488;-64
2023/06/29 03:20:30;;;;;;;12.63;10.13;;;;;;;;;;5118755;28;21210;-64
2023/06/29 03:22:57;;;;;;;17.57;11.20;;;;;;;;;;5119207;28;20477;-64
2023/06/29 03:25:24;;;;;;;15.00;10.97;;;;;;;;;;5123595;27;20508;-64
2023/06/29 03:27:51;;;;;;;11.70;10.40;;;;;;;;;;5118070;28;20501;-64
2023/06/29 03:30:17;;;;;;;14.67;11.23;;;;;;;;;;5111253;28;20458;-64
2023/06/29 03:32:44;;;;;;;12.60;10.20;;;;;;;;;;5120298;28;20485;-64
2023/06/29 03:35:11;;;;;;;13.30;11.70;;;;;;;;;;5115063;28;20504;-64
2023/06/29 03:37:38;;;;;;;15.00;11.23;;;;;;;;;;5111930;28;20463;-64
2023/06/29 03:40:07;;;;;;;16.53;11.97;;;;;;;;;;5117187;28;20548;-64
2023/06/29 03:42:35;;;;;;;13.87;11.80;;;;;;;;;;5121008;28;20473;-64
2023/06/29 03:45:02;;;;;;;17.87;12.13;;;;;;;;;;5108997;28;20525;-64
2023/06/29 03:47:28;;;;;;;19.03;11.50;;;;;;;;;;5120720;28;20492;-64
2023/06/29 03:49:54;;;;;;;15.87;12.20;;;;;;;;;;5124133;28;20513;-64
2023/06/29 03:52:23;;;;;;;17.10;11.90;;;;;;;;;;5109810;28;20568;-69
2023/06/29 03:54:50;;;;;;;15.97;12.60;;;;;;;;;;5119515;28;20485;-64
2023/06/29 03:57:16;;;;;;;15.27;12.73;;;;;;;;;;5118772;28;20549;-65
2023/06/29 03:59:47;;;;;;;16.10;11.73;;;;;;;;;;5112394;28;20510;-64
2023/06/29 04:02:13;;;;;;;14.50;12.47;;;;;;;;;;5112604;28;20550;-64
2023/06/29 04:04:40;;;;;;;14.30;11.17;;;;;;;;;;5120176;28;20950;-65
2023/06/29 04:07:06;;;;;;;14.80;11.30;;;;;;;;;;5122934;27;20505;-64
2023/06/29 04:09:32;;;;;;;13.30;10.57;;;;;;;;;;5116327;28;20554;-64
2023/06/29 04:11:59;;;;;;;19.77;11.93;;;;;;;;;;5122037;27;20457;-64
2023/06/29 04:14:27;;;;;;;19.43;12.10;;;;;;;;;;5115238;27;20509;-64
2023/06/29 04:16:55;;;;;;;14.63;11.00;;;;;;;;;;5119473;27;20454;-64
2023/06/29 04:19:23;;;;;;;11.63;9.73;;;;;;;;;;5119495;27;20509;-65
2023/06/29 04:21:49;;;;;;;16.77;11.60;;;;;;;;;;5130758;27;20530;-65
2023/06/29 04:24:17;;;;;;;11.20;9.50;;;;;;;;;;5127029;27;20519;-65
2023/06/29 04:26:43;;;;;;;14.83;10.93;;;;;;;;;;5116363;27;20581;-65
2023/06/29 04:29:10;;;;;;;14.67;11.00;;;;;;;;;;5122552;27;20450;-64
2023/06/29 04:31:36;;;;;;;14.63;9.87;;;;;;;;;;5121520;27;20454;-64
2023/06/29 04:34:04;;;;;;;15.63;11.10;;;;;;;;;;5122024;28;20482;-65
2023/06/29 04:36:34;;;;;;;16.90;11.87;;;;;;;;;;5119184;27;20446;-65
2023/06/29 04:39:00;;;;;;;15.87;11.50;;;;;;;;;;5127204;27;20481;-65
2023/06/29 04:41:31;;;;;;;16.00;12.40;;;;;;;;;;5111218;27;20446;-65
2023/06/29 04:43:58;;;;;;;16.80;11.00;;;;;;;;;;5119341;28;20523;-65
2023/06/29 04:46:25;;;;;;;14.27;10.87;;;;;;;;;;5123492;27;20521;-65
2023/06/29 04:48:51;;;;;;;15.63;11.40;;;;;;;;;;5125558;27;20541;-65
2023/06/29 04:51:19;;;;;;;16.47;10.20;;;;;;;;;;5114715;27;20530;-64
2023/06/29 04:53:45;;;;;;;17.03;11.50;;;;;;;;;;5121852;27;20457;-65
2023/06/29 04:56:12;;;;;;;15.70;12.17;;;;;;;;;;5124145;27;20712;-65
2023/06/29 04:58:38;;;;;;;13.83;10.40;;;;;;;;;;5117559;27;20587;-65
2023/06/29 05:01:05;;;;;;;13.13;10.20;;;;;;;;;;5118551;28;20468;-65
2023/06/29 05:03:31;;;;;;;18.33;11.80;;;;;;;;;;5122807;27;20518;-65
2023/06/29 05:05:58;;;;;;;13.40;10.30;;;;;;;;;;5116282;27;20793;-64
2023/06/29 05:08:26;;;;;;;15.90;10.83;;;;;;;;;;5118522;28;20804;-65
2023/06/29 05:10:52;;;;;;;16.63;11.00;;;;;;;;;;5120180;27;20531;-65
2023/06/29 05:13:18;;;;;;;14.27;10.33;;;;;;;;;;5120975;27;20525;-65
2023/06/29 05:15:47;;;;;;;12.57;10.30;;;;;;;;;;5118580;28;20472;-65
2023/06/29 05:18:14;;;;;;;14.37;11.13;;;;;;;;;;5109428;27;21001;-65
2023/06/29 05:20:40;;;;;;;10.90;9.17;;;;;;;;;;5125111;27;20524;-65
2023/06/29 05:23:09;;;;;;;15.20;10.70;;;;;;;;;;5113470;28;20955;-65
2023/06/29 05:25:37;;;;;;;11.93;9.50;;;;;;;;;;5118052;28;20510;-65
2023/06/29 05:28:03;;;;;;;15.77;9.83;;;;;;;;;;5116096;27;20690;-65
2023/06/29 05:30:29;;;;;;;15.73;9.30;;;;;;;;;;5109727;28;20527;-65
2023/06/29 05:32:56;;;;;;;13.00;9.40;;;;;;;;;;5117300;27;20461;-65
2023/06/29 05:35:22;;;;;;;12.53;9.10;;;;;;;;;;5127857;27;20477;-65
2023/06/29 05:37:48;;;;;;;15.20;9.73;;;;;;;;;;5111684;27;20467;-65
2023/06/29 05:40:15;;;;;;;14.83;10.10;;;;;;;;;;5106998;27;20490;-65
2023/06/29 05:42:43;;;;;;;11.73;9.13;;;;;;;;;;5122547;27;20482;-65
2023/06/29 05:45:09;;;;;;;10.97;9.80;;;;;;;;;;5121513;27;20482;-65
2023/06/29 05:47:36;;;;;;;15.77;9.47;;;;;;;;;;5120277;28;20485;-65
2023/06/29 05:50:03;;;;;;;15.30;9.50;;;;;;;;;;5119165;27;20495;-65
2023/06/29 05:52:29;;;;;;;10.80;9.40;;;;;;;;;;5120896;27;20467;-65
2023/06/29 05:54:55;;;;;;;15.23;9.17;;;;;;;;;;5112539;27;20469;-65
2023/06/29 05:57:22;;;;;;;13.30;9.17;;;;;;;;;;5118272;28;20481;-65
2023/06/29 05:59:50;;;;;;;14.53;9.47;;;;;;;;;;5115636;27;20514;-65
2023/06/29 06:02:16;;;;;;;8.73;7.83;;;;;;;;;;5111166;27;20540;-65
2023/06/29 06:04:43;;;;;;;11.67;8.50;;;;;;;;;;5112992;27;20946;-66
2023/06/29 06:07:09;;;;;;;10.87;8.47;;;;;;;;;;5113268;27;20482;-66
2023/06/29 06:09:36;;;;;;;15.93;8.50;;;;;;;;;;5123860;27;20453;-66
2023/06/29 06:12:03;;;;;;;11.43;8.03;;;;;;;;;;5120577;27;20883;-66
2023/06/29 06:14:32;;;;;;;14.60;8.60;;;;;;;;;;5124668;27;20446;-66
2023/06/29 06:17:00;;;;;;;9.53;8.00;;;;;;;;;;5121302;27;20481;-66
2023/06/29 06:19:26;;;;;;;11.50;7.80;;;;;;;;;;5116234;27;20926;-66
2023/06/29 06:21:52;;;;;;;9.73;7.80;;;;;;;;;;5106762;27;20475;-66
2023/06/29 06:24:19;;;;;;;12.10;7.30;;;;;;;;;;5109465;28;20481;-66
2023/06/29 06:26:45;;;;;;;10.83;7.23;;;;;;;;;;5125026;27;20559;-66
2023/06/29 06:29:12;;;;;;;12.10;7.60;;;;;;;;;;5114167;27;20462;-66
2023/06/29 06:31:38;;;;;;;14.10;7.33;;;;;;;;;;5114401;27;20476;-66
2023/06/29 06:34:06;;;;;;;9.77;6.77;;;;;;;;;;5113069;28;20474;-67
2023/06/29 06:36:32;;;;;;;8.50;6.63;;;;;;;;;;5111317;28;20446;-66
2023/06/29 06:38:59;;;;;;;8.73;5.97;;;;;;;;;;5120440;27;20469;-66
2023/06/29 06:41:25;;;;;;;11.23;5.70;;;;;;;;;;5121734;27;20570;-66
2023/06/29 06:43:53;;;;;;;7.50;5.07;;;;;;;;;;5121526;27;20506;-67
2023/06/29 06:46:19;;;;;;;10.87;5.80;;;;;;;;;;5117919;27;20482;-66
2023/06/29 06:48:47;;;;;;;8.97;6.00;;;;;;;;;;5111808;28;20455;-66
2023/06/29 06:51:15;;;;;;;8.97;5.43;;;;;;;;;;5119792;27;20458;-66
2023/06/29 06:53:41;;;;;;;7.57;6.27;;;;;;;;;;5113651;28;20901;-66
2023/06/29 06:56:08;;;;;;;11.23;4.80;;;;;;;;;;5134833;27;20482;-66
2023/06/29 06:58:36;;;;;;;10.07;6.43;;;;;;;;;;5118071;27;20504;-66
2023/06/29 07:01:02;;;;;;;12.10;5.90;;;;;;;;;;5110800;28;20455;-66
2023/06/29 07:03:29;;;;;;;9.33;6.40;;;;;;;;;;5111174;27;20526;-66
2023/06/29 07:05:55;;;;;;;9.60;6.00;;;;;;;;;;5105166;28;20554;-66
2023/06/29 07:08:23;;;;;;;8.20;5.60;;;;;;;;;;5118099;27;20523;-66
2023/06/29 07:10:51;;;;;;;9.73;5.50;;;;;;;;;;5113957;28;20470;-66
2023/06/29 07:13:17;;;;;;;7.47;5.33;;;;;;;;;;5108128;27;20935;-66
2023/06/29 07:15:44;;;;;;;8.33;5.63;;;;;;;;;;5104206;28;20856;-66
2023/06/29 07:18:10;;;;;;;9.73;4.80;;;;;;;;;;5118034;27;20479;-66
2023/06/29 07:20:37;;;;;;;7.70;5.50;;;;;;;;;;5115330;28;20446;-69
2023/06/29 07:23:03;;;;;;;6.13;5.03;;;;;;;;;;5119008;28;20489;-67
2023/06/29 07:25:31;;;;;;;7.77;4.27;;;;;;;;;;5104531;27;20510;-67
2023/06/29 07:27:58;;;;;;;6.87;4.30;;;;;;;;;;5109050;28;20506;-67
2023/06/29 07:30:24;;;;;;;10.03;5.00;;;;;;;;;;5113265;28;20443;-67
2023/06/29 07:32:56;;;;;;;4.13;3.73;;;;;;;;;;5120245;28;20462;-67
2023/06/29 07:35:22;;;;;;;8.37;4.33;;;;;;;;;;5117070;28;20469;-67
2023/06/29 07:37:49;;;;;;;7.67;4.87;;;;;;;;;;5117548;28;20502;-67
2023/06/29 07:40:15;;;;;;;6.47;4.30;;;;;;;;;;5115062;27;20510;-67
2023/06/29 07:42:43;;;;;;;7.37;4.70;;;;;;;;;;5110278;27;20494;-67
2023/06/29 07:45:10;;;;;;;5.30;4.50;;;;;;;;;;5119009;27;20549;-67
2023/06/29 07:47:36;;;;;;;7.33;4.80;;;;;;;;;;5126044;27;20940;-68
2023/06/29 07:50:02;;;;;;;6.23;5.17;;;;;;;;;;5121615;28;20438;-67
2023/06/29 07:52:30;;;;;;;7.70;4.30;;;;;;;;;;5127165;27;21097;-67
2023/06/29 07:54:57;;;;;;;6.40;4.70;;;;;;;;;;5124353;27;20796;-67
2023/06/29 07:57:23;;;;;;;8.77;5.80;;;;;;;;;;5110311;28;20514;-68
2023/06/29 07:59:51;;;;;;;6.40;5.00;;;;;;;;;;5128644;27;20450;-65
2023/06/29 08:02:17;;;;;;;5.93;4.57;;;;;;;;;;5122555;27;20530;-67
2023/06/29 08:04:44;;;;;;;6.67;5.17;;;;;;;;;;5124728;27;20909;-67
2023/06/29 08:07:11;;;;;;;12.10;6.90;;;;;;;;;;5114914;28;20554;-67
2023/06/29 08:09:37;;;;;;;13.63;6.93;;;;;;;;;;5136198;27;20461;-67
2023/06/29 08:12:04;;;;;;;9.17;6.33;;;;;;;;;;5129432;27;20456;-67
2023/06/29 08:14:32;;;;;;;15.33;7.60;;;;;;;;;;5112490;27;20484;-67
2023/06/29 08:17:00;;;;;;;13.23;7.43;;;;;;;;;;5123755;27;20484;-68
2023/06/29 08:19:26;;;;;;;10.10;6.90;;;;;;;;;;5124405;27;20456;-67
2023/06/29 08:21:55;;;;;;;11.23;6.57;;;;;;;;;;5122266;28;20453;-66
2023/06/29 08:24:21;;;;;;;12.03;7.37;;;;;;;;;;5130668;27;20458;-66
2023/06/29 08:26:48;;;;;;;10.67;6.53;;;;;;;;;;5112274;27;20585;-66
2023/06/29 08:29:14;;;;;;;12.33;7.00;;;;;;;;;;5123421;27;20871;-67
2023/06/29 08:31:40;;;;;;;10.70;6.37;;;;;;;;;;5111395;28;20478;-66
2023/06/29 08:34:08;;;;;;;9.43;7.10;;;;;;;;;;5120101;27;20477;-67
2023/06/29 08:36:36;;;;;;;10.53;7.57;;;;;;;;;;5126965;27;21032;-68
2023/06/29 08:39:02;;;;;;;9.33;7.33;;;;;;;;;;5122463;27;20438;-68
2023/06/29 08:41:29;;;;;;;12.90;6.90;;;;;;;;;;5122801;27;20981;-67
2023/06/29 08:43:56;;;;;;;14.73;7.60;;;;;;;;;;5129840;27;20496;-68
2023/06/29 08:46:22;;;;;;;11.80;8.33;;;;;;;;;;5116774;27;20462;-68
2023/06/29 08:48:49;;;;;;;8.73;7.07;;;;;;;;;;5119920;27;20514;-67
2023/06/29 08:51:19;;;;;;;11.90;7.17;;;;;;;;;;5129305;27;20457;-67
2023/06/29 08:53:46;;;;;;;10.57;8.10;;;;;;;;;;5123462;27;20450;-67
2023/06/29 08:56:15;;;;;;;14.53;7.67;;;;;;;;;;5110546;28;20478;-67
2023/06/29 08:58:42;;;;;;;13.53;6.67;;;;;;;;;;5116808;27;21062;-66
2023/06/29 09:01:09;;;;;;;10.30;6.70;;;;;;;;;;5119764;27;20465;-67
2023/06/29 09:03:36;;;;;;;9.27;7.30;;;;;;;;;;5114425;27;20940;-66
2023/06/29 09:06:04;;;;;;;11.53;6.17;;;;;;;;;;5121823;28;20477;-67
2023/06/29 09:08:34;;;;;;;14.50;7.47;;;;;;;;;;5126032;27;21006;-67
2023/06/29 09:11:00;;;;;;;10.60;7.07;;;;;;;;;;5119116;27;20536;-67
2023/06/29 09:13:27;;;;;;;9.40;7.13;;;;;;;;;;5121461;28;20484;-67
2023/06/29 09:15:54;;;;;;;9.03;6.13;;;;;;;;;;5119679;27;20442;-66
2023/06/29 09:18:22;;;;;;;9.57;6.17;;;;;;;;;;5121333;27;20453;-66
2023/06/29 09:20:50;;;;;;;17.13;6.80;;;;;;;;;;5106145;28;20446;-67
2023/06/29 09:23:17;;;;;;;8.80;6.97;;;;;;;;;;5115619;27;20527;-67
2023/06/29 09:25:45;;;;;;;10.83;6.70;;;;;;;;;;5120763;27;20446;-67
2023/06/29 09:28:13;;;;;;;10.80;7.87;;;;;;;;;;5123695;27;20501;-66
2023/06/29 09:30:40;;;;;;;11.87;6.90;;;;;;;;;;5123195;27;20450;-68
2023/06/29 09:33:08;;;;;;;11.80;6.80;;;;;;;;;;5122272;27;20463;-67
2023/06/29 09:35:35;;;;;;;11.57;7.57;;;;;;;;;;5112140;27;20442;-67
2023/06/29 09:38:01;;;;;;;13.20;6.90;;;;;;;;;;5116226;27;20467;-67
2023/06/29 09:40:28;;;;;;;12.80;6.90;;;;;;;;;;5122582;27;20748;-67
2023/06/29 09:42:56;;;;;;;9.10;6.87;;;;;;;;;;5122681;27;20464;-67
2023/06/29 09:45:22;;;;;;;9.10;6.50;;;;;;;;;;5116695;27;21402;-67
2023/06/29 09:47:49;;;;;;;11.17;7.30;;;;;;;;;;5120819;27;20583;-67
2023/06/29 09:50:19;;;;;;;11.37;7.27;;;;;;;;;;5117372;27;20549;-67
2023/06/29 09:52:48;;;;;;;9.93;7.10;;;;;;;;;;5104378;28;20504;-68
2023/06/29 09:55:14;;;;;;;10.80;6.43;;;;;;;;;;5119508;27;20538;-67
2023/06/29 09:57:49;;;;;;;8.70;7.20;;;;;;;;;;5108069;27;20479;-68
2023/06/29 10:00:18;;;;;;;11.30;6.90;;;;;;;;;;5111224;28;20452;-67
2023/06/29 10:02:44;;;;;;;13.33;6.90;;;;;;;;;;5117619;27;20505;-67
2023/06/29 10:05:11;;;;;;;14.83;7.70;;;;;;;;;;5122157;27;20466;-67
2023/06/29 10:07:38;;;;;;;10.47;7.13;;;;;;;;;;5120969;27;20519;-67
2023/06/29 10:10:05;;;;;;;9.93;5.70;;;;;;;;;;5115177;27;20474;-67
2023/06/29 10:12:32;;;;;;;9.50;6.40;;;;;;;;;;5115258;27;20454;-67
2023/06/29 10:15:05;;;;;;;13.07;7.10;;;;;;;;;;5121458;27;20946;-68
2023/06/29 10:17:37;;;;;;;10.90;6.40;;;;;;;;;;5119009;28;20741;-68
2023/06/29 10:20:06;;;;;;;11.90;7.30;;;;;;;;;;5119327;27;20586;-68
2023/06/29 10:22:34;;;;;;;10.43;7.10;;;;;;;;;;5122743;27;20489;-68
2023/06/29 10:25:03;;;;;;;10.90;7.40;;;;;;;;;;5119529;28;21023;-68
2023/06/29 10:27:30;;;;;;;12.03;7.37;;;;;;;;;;5117457;28;20496;-68
2023/06/29 10:29:57;;;;;;;11.60;7.77;;;;;;;;;;5121928;27;20482;-68
2023/06/29 10:32:31;;;;;;;17.83;7.77;;;;;;;;;;5117398;28;20453;-67
2023/06/29 10:35:03;;;;;;;18.73;9.03;;;;;;;;;;5121109;27;20457;-67
2023/06/29 10:37:33;;;;;;;12.33;8.33;;;;;;;;;;5119966;27;20454;-67
2023/06/29 10:39:59;;;;;;;13.80;7.43;;;;;;;;;;5117867;28;20445;-67
2023/06/29 10:42:48;;;;;;;15.73;8.53;;;;;;;;;;5120326;27;20442;-67
2023/06/29 10:45:30;;;;;;;10.57;7.20;;;;;;;;;;5117386;27;20502;-67
2023/06/29 10:48:00;;;;;;;11.80;6.60;;;;;;;;;;5114367;27;20493;-67
2023/06/29 10:50:30;;;;;;;12.83;7.27;;;;;;;;;;5112914;28;20713;-68
2023/06/29 10:52:58;;;;;;;14.37;8.50;;;;;;;;;;5121121;27;20522;-67
2023/06/29 10:55:25;;;;;;;14.50;8.10;;;;;;;;;;5120438;27;20438;-67
2023/06/29 10:57:54;;;;;;;11.43;7.80;;;;;;;;;;5118894;27;20510;-67
2023/06/29 11:00:21;;;;;;;12.23;8.60;;;;;;;;;;5117304;28;20446;-67
2023/06/29 11:02:49;;;;;;;10.43;7.80;;;;;;;;;;5122681;27;20446;-67
2023/06/29 11:05:16;;;;;;;15.57;8.97;;;;;;;;;;5118992;27;20518;-67
2023/06/29 11:07:44;;;;;;;13.53;8.27;;;;;;;;;;5114229;28;20924;-68
2023/06/29 11:10:11;;;;;;;13.17;8.53;;;;;;;;;;5120076;27;20495;-68
2023/06/29 11:12:38;;;;;;;12.17;9.00;;;;;;;;;;5118213;27;20454;-68
2023/06/29 11:15:06;;;;;;;10.83;8.77;;;;;;;;;;5120310;27;20519;-68
2023/06/29 11:17:32;;;;;;;11.10;8.50;;;;;;;;;;5119173;28;20514;-68
2023/06/29 11:19:59;;;;;;;16.53;9.97;;;;;;;;;;5116745;28;20478;-68
2023/06/29 11:22:27;;;;;;;13.70;8.30;;;;;;;;;;5114757;28;21838;-68
2023/06/29 11:24:55;;;;;;;12.10;8.87;;;;;;;;;;5119126;28;20497;-66
2023/06/29 11:27:21;;;;;;;11.97;9.30;;;;;;;;;;5117884;27;20460;-69
2023/06/29 11:29:53;;;;;;;14.10;8.60;;;;;;;;;;5113220;28;20472;-67
2023/06/29 11:32:20;;;;;;;13.17;8.33;;;;;;;;;;5104188;28;20471;-67
2023/06/29 11:34:46;;;;;;;13.60;9.70;;;;;;;;;;5113219;28;20455;-67
2023/06/29 11:37:13;;;;;;;12.23;8.40;;;;;;;;;;5114769;28;20541;-67
2023/06/29 11:39:39;;;;;;;14.30;9.43;;;;;;;;;;5119395;28;20503;-66
2023/06/29 11:42:09;;;;;;;17.50;9.53;;;;;;;;;;5118420;28;20475;-67
2023/06/29 11:44:35;;;;;;;10.90;8.33;;;;;;;;;;5119132;28;20485;-67
2023/06/29 11:47:02;;;;;;;13.60;9.23;;;;;;;;;;5119151;28;20835;-67
2023/06/29 11:49:28;;;;;;;15.23;8.13;;;;;;;;;;5103837;28;20927;-67
2023/06/29 11:51:55;;;;;;;14.60;8.67;;;;;;;;;;5118618;28;20454;-67
2023/06/29 11:54:21;;;;;;;15.40;8.27;;;;;;;;;;5122970;28;20463;-66
2023/06/29 11:56:48;;;;;;;11.60;8.37;;;;;;;;;;5115484;28;20510;-67
2023/06/29 11:59:16;;;;;;;13.90;7.57;;;;;;;;;;5112198;28;20455;-67
2023/06/29 12:01:44;;;;;;;8.70;6.97;;;;;;;;;;5123348;28;20456;-67
2023/06/29 12:04:12;;;;;;;9.40;6.77;;;;;;;;;;5121271;28;20477;-67
2023/06/29 12:06:49;;;;;;;9.90;7.73;;;;;;;;;;5118422;28;20468;-67
2023/06/29 12:09:16;;;;;;;9.37;7.50;;;;;;;;;;5106809;28;20527;-67
2023/06/29 12:11:42;;;;;;;9.00;6.83;;;;;;;;;;5122283;28;20454;-67
2023/06/29 12:14:11;;;;;;;11.00;7.90;;;;;;;;;;5124679;28;20497;-69
2023/06/29 12:16:40;;;;;;;10.80;7.50;;;;;;;;;;5112378;28;20452;-67
2023/06/29 12:19:10;;;;;;;13.57;7.83;;;;;;;;;;5121272;28;20454;-68
2023/06/29 12:21:36;;;;;;;13.23;7.50;;;;;;;;;;5105554;28;20484;-67
2023/06/29 12:24:03;;;;;;;9.87;7.07;;;;;;;;;;5120827;28;20517;-67
2023/06/29 12:26:30;;;;;;;12.50;7.33;;;;;;;;;;5118332;28;20453;-67
2023/06/29 12:28:56;;;;;;;13.17;7.30;;;;;;;;;;5109198;27;21020;-67
2023/06/29 12:31:25;;;;;;;13.80;7.50;;;;;;;;;;5121503;27;20442;-67
2023/06/29 12:33:53;;;;;;;13.83;7.67;;;;;;;;;;5130340;27;20460;-67
2023/06/29 12:36:19;;;;;;;11.90;8.10;;;;;;;;;;5131246;27;20461;-67
2023/06/29 12:38:47;;;;;;;12.23;7.90;;;;;;;;;;5120951;27;20496;-68
2023/06/29 12:41:13;;;;;;;13.07;8.10;;;;;;;;;;5120213;27;20450;-68
2023/06/29 12:43:39;;;;;;;10.33;7.50;;;;;;;;;;5119095;27;20499;-68
2023/06/29 12:46:09;;;;;;;9.90;8.20;;;;;;;;;;5108884;27;20492;-68
2023/06/29 12:48:35;;;;;;;11.87;7.70;;;;;;;;;;5117969;28;20486;-67
2023/06/29 12:51:03;;;;;;;14.17;7.60;;;;;;;;;;5122225;27;20448;-67
2023/06/29 12:53:32;;;;;;;9.50;7.60;;;;;;;;;;5120920;27;20484;-67
2023/06/29 12:55:58;;;;;;;10.60;7.10;;;;;;;;;;5121923;28;20950;-67
2023/06/29 12:58:25;;;;;;;12.80;7.67;;;;;;;;;;5118960;27;20522;-67
2023/06/29 13:00:51;;;;;;;10.03;7.10;;;;;;;;;;5130243;27;20532;-67
2023/06/29 13:03:18;;;;;;;11.60;7.47;;;;;;;;;;5107082;27;20493;-67
2023/06/29 13:05:48;;;;;;;11.30;7.33;;;;;;;;;;5119910;28;20728;-67
2023/06/29 13:08:16;;;;;;;13.00;7.40;;;;;;;;;;5121655;27;20545;-67
2023/06/29 13:10:42;;;;;;;12.20;7.70;;;;;;;;;;5107209;28;20458;-67
2023/06/29 13:13:08;;;;;;;11.07;7.53;;;;;;;;;;5121481;27;20489;-67
2023/06/29 13:15:35;;;;;;;11.27;7.27;;;;;;;;;;5122303;27;20965;-67
2023/06/29 13:18:01;;;;;;;11.20;7.63;;;;;;;;;;5122030;28;20489;-67
2023/06/29 13:20:28;;;;;;;10.73;6.70;;;;;;;;;;5116244;28;20470;-68
2023/06/29 13:22:54;;;;;;;15.10;7.60;;;;;;;;;;5112707;27;20505;-67
2023/06/29 13:25:23;;;;;;;11.30;6.80;;;;;;;;;;5119116;27;20509;-67
2023/06/29 13:27:49;;;;;;;9.90;7.37;;;;;;;;;;5120537;28;20468;-68
2023/06/29 13:30:16;;;;;;;12.40;7.87;;;;;;;;;;5117805;27;20565;-67
2023/06/29 13:32:42;;;;;;;17.83;9.27;;;;;;;;;;5115346;27;20476;-67
2023/06/29 13:35:09;;;;;;;10.50;7.50;;;;;;;;;;5123185;27;20450;-67
2023/06/29 13:37:35;;;;;;;13.50;8.57;;;;;;;;;;5118020;28;20899;-67
2023/06/29 13:40:02;;;;;;;14.47;9.10;;;;;;;;;;5122468;27;21066;-66
2023/06/29 13:42:30;;;;;;;12.37;8.80;;;;;;;;;;5122010;28;20533;-67
2023/06/29 13:44:56;;;;;;;10.00;8.07;;;;;;;;;;5116259;27;20482;-67
2023/06/29 13:47:23;;;;;;;14.43;9.17;;;;;;;;;;5119700;27;20446;-67
2023/06/29 13:49:50;;;;;;;13.77;8.87;;;;;;;;;;5114868;27;20580;-67
2023/06/29 13:52:19;;;;;;;12.07;8.90;;;;;;;;;;5123433;27;20453;-67
2023/06/29 13:54:46;;;;;;;13.80;9.33;;;;;;;;;;5113871;27;20955;-67
2023/06/29 13:57:12;;;;;;;11.83;8.63;;;;;;;;;;5121290;27;20467;-67
2023/06/29 13:59:41;;;;;;;12.90;9.70;;;;;;;;;;5114633;28;20450;-67
2023/06/29 14:02:07;;;;;;;16.20;9.80;;;;;;;;;;5121281;27;21006;-67
2023/06/29 14:04:33;;;;;;;10.83;9.67;;;;;;;;;;5125776;27;20512;-67
2023/06/29 14:07:00;;;;;;;13.47;9.17;;;;;;;;;;5122726;27;20474;-67
2023/06/29 14:09:27;;;;;;;14.10;10.40;;;;;;;;;;5121293;28;20478;-67
2023/06/29 14:11:53;;;;;;;15.70;11.40;;;;;;;;;;5112763;28;20496;-67
2023/06/29 14:14:20;;;;;;;14.50;9.90;;;;;;;;;;5110013;28;20526;-67
2023/06/29 14:16:47;;;;;;;15.37;11.37;;;;;;;;;;5119767;28;20471;-67
2023/06/29 14:19:14;;;;;;;14.27;10.73;;;;;;;;;;5120901;28;20547;-67
2023/06/29 14:21:42;;;;;;;15.80;10.20;;;;;;;;;;5114286;28;20492;-66
2023/06/29 14:24:08;;;;;;;12.53;10.03;;;;;;;;;;5114386;28;20462;-67
2023/06/29 14:26:35;;;;;;;15.37;10.37;;;;;;;;;;5120566;27;20488;-67
2023/06/29 14:29:01;;;;;;;15.87;10.70;;;;;;;;;;5118991;27;20543;-68